Latest Weather Observations for Bulman

IDD60801

Issued at 3:01 pm CST Saturday 23 May 2015 (issued every 30 minutes, with the page automatically refreshed every 10 minutes)

About weather observations | Map of weather stations | Latest weather observations for NT | Other Formats
Station Details ID: 014627 Name: BULMAN Lat: -13.67 Lon: 134.34 Height: 103.4 m
Data from the previous 72 hours. | See also: Recent months for locations in Northern Territory
Date/Time
CST
Temp
°C
App
Temp
°C
Dew
Point
Rel
Hum
%
Delta-T
°C
Wind Press
QNH
hPa
Press
MSL
hPa
Rain
since 9 am
mm
Dir
 
Spd
km/h
Gust
km/h
Spd
kts
Gust
kts
23/03:00pm 30.8 28.1 7.3 23 12.8 ESE 11 22 6 12 1014.2 1013.7 0.0
23/02:30pm 30.9 28.0 6.7 22 13.1 SE 11 20 6 11 1014.6 1014.1 0.0
23/02:00pm 30.2 27.1 5.5 21 13.0 ESE 11 22 6 12 1015.0 1014.5 0.0
23/01:30pm 30.1 27.1 6.1 22 12.8 SSE 11 19 6 10 1015.5 1015.0 0.0
23/01:00pm 29.7 25.9 5.7 22 12.7 SE 15 28 8 15 1016.2 1015.7 0.0
23/12:30pm 29.1 25.8 6.5 24 12.0 SSE 13 20 7 11 1016.8 1016.2 0.0
23/12:00pm 28.1 24.4 6.2 25 11.5 S 15 22 8 12 1017.4 1016.8 0.0
23/11:30am 28.0 24.9 7.3 27 11.1 SSE 13 20 7 11 1017.8 1017.2 0.0
23/11:00am 26.2 22.7 7.3 30 10.1 SSE 15 24 8 13 1018.1 1017.5 0.0
23/10:30am 25.5 21.8 8.1 33 9.3 SSE 17 24 9 13 1018.6 1018.0 0.0
23/10:00am 24.8 21.9 9.5 38 8.4 SSE 15 26 8 14 1018.8 1018.2 0.0
23/09:30am 24.2 21.7 12.2 47 6.9 SSE 17 26 9 14 1018.9 1018.3 0.0
23/09:00am 23.1 21.7 13.3 54 5.7 SSE 13 22 7 12 1018.8 1018.2 -
23/08:30am 21.7 20.3 14.4 63 4.3 SSE 15 24 8 13 1018.7 1018.1 -
23/08:00am 21.0 20.2 15.1 69 3.5 S 13 20 7 11 1018.4 1017.8 -
23/07:30am 19.9 19.2 16.3 80 2.2 S 15 22 8 12 1018.3 1017.7 -
23/07:00am 19.3 18.9 16.3 83 1.8 S 13 20 7 11 1018.0 1017.4 -
23/06:30am 19.5 19.7 16.7 84 1.7 S 11 22 6 12 1017.7 1017.1 -
23/06:00am 19.5 20.0 16.5 83 1.8 S 9 15 5 8 1017.4 1016.8 -
23/05:30am 19.7 20.3 16.7 83 1.8 S 9 15 5 8 1017.2 1016.6 -
23/05:00am 19.3 20.1 16.3 83 1.8 S 7 11 4 6 1017.1 1016.5 -
23/04:30am 19.1 19.5 16.3 84 1.7 S 9 11 5 6 1017.0 1016.4 -
23/04:00am 18.6 19.4 16.4 87 1.3 S 7 9 4 5 1017.0 1016.4 -
23/03:30am 18.5 19.4 16.5 88 1.2 S 7 9 4 5 1016.9 1016.3 -
23/03:00am 17.8 18.6 16.3 91 0.9 S 7 9 4 5 1016.9 1016.3 -
23/02:30am 17.5 18.4 16.0 91 0.9 S 6 7 3 4 1017.1 1016.5 -
23/02:00am 17.7 18.6 16.0 90 1.0 SSW 6 7 3 4 1017.3 1016.7 -
23/01:30am 18.0 19.7 16.2 89 1.1 S 2 7 1 4 1017.3 1016.7 -
23/01:00am 18.2 20.2 16.0 87 1.3 CALM 0 0 0 0 1017.5 1016.9 -
23/12:30am 18.5 20.5 16.1 86 1.4 CALM 0 0 0 0 1017.6 1017.0 -
23/12:00am 19.1 20.0 16.1 83 1.8 S 6 7 3 4 1017.7 1017.1 -
 
Date/Time
CST
Temp
°C
App
Temp
°C
Dew
Point
Rel
Hum
%
Delta-T
°C
Wind Press
QNH
hPa
Press
MSL
hPa
Rain
since 9 am
mm
Dir
 
Spd
km/h
Gust
km/h
Spd
kts
Gust
kts
22/11:30pm 19.5 20.9 16.3 82 1.9 S 4 6 2 3 1017.9 1017.3 -
22/11:00pm 20.1 22.2 16.3 79 2.3 CALM 0 0 0 0 1018.1 1017.5 -
22/10:30pm 20.6 22.6 16.0 75 2.8 CALM 0 6 0 3 1018.0 1017.4 -
22/10:00pm 21.2 23.2 16.0 72 3.1 CALM 0 0 0 0 1018.0 1017.4 -
22/09:30pm 21.7 23.7 16.0 70 3.4 CALM 0 6 0 3 1018.2 1017.6 -
22/09:00pm 22.5 24.5 16.1 67 3.9 CALM 0 0 0 0 1018.1 1017.5 -
22/08:30pm 23.9 24.7 15.9 61 4.9 ESE 6 9 3 5 1017.9 1017.3 -
22/08:00pm 24.7 25.3 15.9 58 5.4 ESE 7 15 4 8 1017.5 1016.9 -
22/07:30pm 25.1 25.7 15.4 55 5.9 SE 6 9 3 5 1017.1 1016.5 -
22/07:00pm 26.0 25.8 15.7 53 6.3 ESE 11 20 6 11 1016.8 1016.2 -
22/06:30pm 26.8 26.0 15.2 49 7.1 ESE 13 20 7 11 1016.2 1015.7 -
22/06:00pm 27.8 26.9 14.8 45 7.9 ESE 13 20 7 11 1015.8 1015.3 -
22/05:30pm 28.8 27.1 14.6 42 8.6 ESE 17 26 9 14 1015.3 1014.8 -
22/05:00pm 30.0 28.3 13.7 37 9.8 ESE 15 20 8 11 1015.0 1014.5 -
22/04:00pm 31.4 29.2 13.2 33 10.9 ESE 17 24 9 13 1014.4 1013.9 0.0
22/03:30pm 31.9 29.7 13.2 32 11.3 ESE 17 26 9 14 1014.2 1013.7 0.0
22/03:00pm 32.3 29.6 13.0 31 11.6 ESE 19 32 10 17 1014.4 1013.9 0.0
22/02:30pm 32.7 30.4 12.9 30 11.9 ESE 17 24 9 13 1014.6 1014.1 0.0
22/02:00pm 32.1 29.6 12.3 29 11.8 ESE 17 28 9 15 1014.7 1014.2 0.0
22/01:30pm 32.6 30.6 12.8 30 11.9 ESE 15 30 8 16 1015.3 1014.8 0.0
22/01:00pm 32.0 29.5 12.3 30 11.7 ESE 17 26 9 14 1015.8 1015.3 0.0
22/12:30pm 31.3 28.8 12.2 31 11.3 ESE 17 28 9 15 1016.4 1015.8 0.0
22/12:00pm 31.3 29.6 13.6 34 10.7 ESE 15 30 8 16 1016.9 1016.3 0.0
22/11:30am 31.2 29.8 14.4 36 10.3 SE 15 26 8 14 1017.2 1016.6 0.0
22/11:00am 29.8 27.7 14.7 39 9.2 SE 19 30 10 16 1017.5 1016.9 0.0
22/10:30am 28.8 26.9 15.3 43 8.3 SE 19 30 10 16 1017.9 1017.3 0.0
22/10:00am 28.2 28.0 18.6 56 6.2 SE 17 28 9 15 1018.2 1017.6 0.0
22/09:30am 27.2 28.6 21.0 69 4.1 SSE 15 24 8 13 1018.4 1017.8 0.0
22/09:00am 25.2 26.7 21.3 79 2.6 SSE 15 22 8 12 1018.7 1018.1 0.0
22/08:30am 24.8 27.6 21.5 82 2.2 SSE 9 15 5 8 1018.6 1018.0 0.0
22/08:00am 23.2 26.0 20.9 87 1.5 SE 7 11 4 6 1018.6 1018.0 0.0
22/07:30am 22.3 24.4 20.2 88 1.4 SSE 9 13 5 7 1017.9 1017.3 0.0
22/07:00am 22.1 24.8 21.3 95 0.5 SSE 9 15 5 8 1017.7 1017.1 0.0
22/06:30am 18.8 21.1 17.6 93 0.7 SSW 2 6 1 3 1017.5 1016.9 0.0
22/06:00am 19.2 20.9 18.0 93 0.7 S 6 7 3 4 1017.1 1016.5 0.0
22/05:30am 19.2 22.0 17.9 92 0.8 CALM 0 0 0 0 1017.0 1016.4 0.0
22/05:00am 19.4 21.1 18.1 92 0.8 SSW 6 6 3 3 1016.7 1016.1 0.0
22/04:30am 19.4 21.5 18.2 93 0.7 SSW 4 7 2 4 1016.4 1015.8 0.0
22/04:00am 19.4 22.1 17.7 90 1.0 CALM 0 0 0 0 1016.1 1015.6 0.0
22/03:30am 19.7 22.4 17.7 88 1.2 CALM 0 0 0 0 1015.9 1015.4 0.0
22/03:00am 20.1 22.9 17.9 87 1.4 CALM 0 0 0 0 1016.0 1015.5 0.0
22/02:30am 20.3 23.0 17.7 85 1.6 CALM 0 0 0 0 1016.0 1015.5 0.0
22/02:00am 20.7 23.5 17.9 84 1.7 CALM 0 0 0 0 1016.1 1015.6 0.0
22/01:30am 20.8 23.5 17.8 83 1.9 CALM 0 0 0 0 1016.4 1015.8 0.0
22/01:00am 21.0 23.6 17.4 80 2.2 CALM 0 0 0 0 1016.4 1015.8 0.0
22/12:30am 21.3 23.9 17.5 79 2.3 CALM 0 0 0 0 1016.5 1015.9 0.0
22/12:00am 21.9 24.5 17.5 76 2.7 CALM 0 0 0 0 1016.5 1015.9 0.0
 
Date/Time
CST
Temp
°C
App
Temp
°C
Dew
Point
Rel
Hum
%
Delta-T
°C
Wind Press
QNH
hPa
Press
MSL
hPa
Rain
since 9 am
mm
Dir
 
Spd
km/h
Gust
km/h
Spd
kts
Gust
kts
21/11:30pm 22.5 25.0 17.2 72 3.3 CALM 0 0 0 0 1016.7 1016.1 0.0
21/11:00pm 23.3 25.8 17.3 69 3.7 CALM 0 6 0 3 1016.9 1016.3 0.0
21/10:30pm 24.1 26.5 17.1 65 4.3 CALM 0 9 0 5 1016.8 1016.2 0.0
21/10:00pm 23.7 25.9 17.4 68 3.9 ESE 2 7 1 4 1016.7 1016.1 0.0
21/09:30pm 24.5 27.1 17.5 65 4.4 CALM 0 0 0 0 1016.6 1016.0 0.0
21/09:00pm 25.4 27.5 17.1 60 5.2 SE 2 7 1 4 1016.4 1015.8 0.0
21/08:30pm 27.2 28.4 16.8 53 6.5 E 6 11 3 6 1015.9 1015.4 0.0
21/08:00pm 26.9 28.0 16.5 53 6.5 ESE 6 7 3 4 1015.4 1014.9 0.0
21/07:30pm 28.1 28.7 15.4 46 7.8 ESE 6 7 3 4 1014.9 1014.4 0.0
21/07:00pm 30.0 30.5 14.9 39 9.3 E 6 9 3 5 1014.6 1014.1 0.0
21/06:30pm 31.1 30.8 14.3 36 10.2 E 9 17 5 9 1014.3 1013.8 0.0
21/06:00pm 31.9 31.5 14.1 34 10.9 ESE 9 17 5 9 1013.9 1013.4 0.0
21/05:30pm 33.1 31.4 13.7 31 11.8 ESE 15 22 8 12 1013.6 1013.1 0.0
21/05:00pm 33.8 33.1 13.3 29 12.4 E 9 17 5 9 1013.3 1012.8 0.0
21/04:30pm 34.6 33.2 13.4 28 12.9 E 13 20 7 11 1013.1 1012.6 0.0
21/04:00pm 34.7 33.3 13.5 28 13.0 ESE 13 26 7 14 1013.1 1012.6 0.0
21/03:30pm 33.4 31.8 12.9 28 12.4 E 13 20 7 11 1013.3 1012.8 0.0
21/03:00pm 33.8 32.0 13.3 29 12.4 ESE 15 26 8 14 1013.5 1013.0 0.0
21/02:30pm 33.9 32.7 12.8 28 12.7 ESE 11 24 6 13 1013.9 1013.4 0.0
21/02:00pm 34.4 32.2 13.3 28 12.8 E 17 24 9 13 1014.2 1013.7 0.0
21/01:30pm 34.5 33.7 13.9 29 12.6 ESE 11 26 6 14 1014.4 1013.9 0.0
21/01:00pm 34.4 32.8 13.8 29 12.6 E 15 28 8 15 1015.0 1014.5 0.0
21/12:30pm 33.8 33.1 15.3 33 11.6 ESE 13 20 7 11 1015.5 1015.0 0.0
21/12:00pm 33.2 32.1 15.2 33 11.2 ESE 15 22 8 12 1016.0 1015.5 0.0
21/11:30am 32.8 33.3 16.6 38 10.3 ESE 9 19 5 10 1016.4 1015.8 0.0
21/11:00am 31.5 32.8 18.5 46 8.4 ENE 9 15 5 8 1016.8 1016.2 0.0
21/10:30am 30.4 32.1 19.4 51 7.2 NNE 9 15 5 8 1017.2 1016.6 0.0
21/10:00am 29.2 31.7 19.8 57 6.2 N 6 13 3 7 1017.3 1016.7 0.0
21/09:30am 28.0 30.8 20.8 65 4.8 NNW 7 11 4 6 1017.5 1016.9 0.0
21/09:00am 25.9 29.4 21.8 78 2.7 NNW 6 11 3 6 1017.4 1016.8 0.0
21/08:30am 23.7 27.0 21.8 89 1.3 NNW 7 11 4 6 1017.4 1016.8 0.0
21/08:00am 21.8 25.3 20.4 92 0.9 N 2 7 1 4 1017.3 1016.7 0.0
21/07:30am 19.5 22.5 18.5 94 0.6 CALM 0 0 0 0 1017.0 1016.4 0.0
21/07:00am 18.5 21.1 17.5 94 0.6 CALM 0 0 0 0 1016.8 1016.2 0.0
21/06:30am 18.5 21.1 17.5 94 0.6 CALM 0 0 0 0 1016.4 1015.8 0.0
21/06:00am 18.5 21.0 17.3 93 0.7 CALM 0 0 0 0 1016.2 1015.7 0.0
21/05:30am 18.7 21.3 17.5 93 0.7 CALM 0 0 0 0 1016.0 1015.5 0.0
21/05:00am 19.1 21.8 17.8 92 0.8 CALM 0 0 0 0 1015.6 1015.1 0.0
21/04:30am 19.3 22.0 17.8 91 0.9 CALM 0 0 0 0 1015.5 1015.0 0.0
21/04:00am 19.7 22.4 17.8 89 1.2 CALM 0 0 0 0 1015.5 1015.0 0.0
21/03:30am 20.1 23.0 18.2 89 1.2 CALM 0 0 0 0 1015.5 1015.0 0.0
21/03:00am 20.4 23.3 18.2 87 1.4 CALM 0 0 0 0 1015.5 1015.0 0.0
21/02:30am 20.7 23.6 18.1 85 1.6 CALM 0 0 0 0 1015.7 1015.2 0.0
21/02:00am 21.0 23.8 18.0 83 1.9 CALM 0 0 0 0 1016.0 1015.5 0.0
21/01:30am 21.2 24.0 18.0 82 2.0 CALM 0 0 0 0 1016.2 1015.7 0.0
21/01:00am 21.5 24.3 17.9 80 2.2 CALM 0 0 0 0 1016.2 1015.7 0.0
21/12:30am 22.1 24.8 17.7 76 2.7 CALM 0 0 0 0 1016.2 1015.7 0.0
21/12:00am 22.8 25.6 17.9 74 3.1 CALM 0 0 0 0 1016.4 1015.8 0.0
 
Date/Time
CST
Temp
°C
App
Temp
°C
Dew
Point
Rel
Hum
%
Delta-T
°C
Wind Press
QNH
hPa
Press
MSL
hPa
Rain
since 9 am
mm
Dir
 
Spd
km/h
Gust
km/h
Spd
kts
Gust
kts
20/11:30pm 23.7 26.5 17.9 70 3.6 CALM 0 6 0 3 1016.7 1016.1 0.0
20/11:00pm 24.6 27.1 18.1 67 4.1 E 2 6 1 3 1016.5 1015.9 0.0
20/10:30pm 25.3 27.5 17.5 62 4.9 SE 2 6 1 3 1016.2 1015.7 0.0
20/10:00pm 27.3 28.8 17.5 55 6.2 E 6 9 3 5 1016.2 1015.7 0.0
20/09:30pm 28.1 29.3 17.3 52 6.8 ESE 7 11 4 6 1016.1 1015.6 0.0
20/09:00pm 28.0 28.9 16.6 50 7.1 SE 7 11 4 6 1016.0 1015.5 0.0
20/08:30pm 26.9 28.2 16.2 52 6.6 SE 4 9 2 5 1015.5 1015.0 0.0
20/08:00pm 28.4 29.0 15.7 46 7.8 NE 7 13 4 7 1015.0 1014.5 0.0
20/07:30pm 26.1 27.1 16.4 55 6.0 SSW 6 7 3 4 1014.2 1013.7 0.0
20/07:00pm 26.7 28.4 15.1 49 7.0 CALM 0 0 0 0 1013.8 1013.3 0.0
20/06:30pm 28.6 29.9 14.1 41 8.7 CALM 0 0 0 0 1013.5 1013.0 0.0
20/06:00pm 33.0 34.1 13.6 31 11.8 CALM 0 6 0 3 1013.2 1012.7 0.0
20/05:30pm 34.0 33.1 11.2 25 13.4 ENE 7 11 4 6 1012.9 1012.3 0.0
20/05:00pm 34.6 33.8 11.7 25 13.6 NE 7 13 4 7 1012.5 1011.9 0.0
20/04:30pm 34.5 33.1 11.0 24 13.8 E 9 15 5 8 1012.3 1011.7 0.0
20/04:00pm 35.6 34.5 11.9 24 14.2 NE 9 17 5 9 1012.2 1011.6 0.0
20/03:30pm 35.9 35.4 12.2 24 14.3 E 6 11 3 6 1012.4 1011.8 0.0

Other Formats:

Comma delimited format used in spreadsheet applications
http://www.bom.gov.au/fwo/IDD60801/IDD60801.94143.axf

JavaScript Object Notation format (JSON) in row-major order
http://www.bom.gov.au/fwo/IDD60801/IDD60801.94143.json